createdAt,value
2022-07-28T11:27:03.712Z,36.84
2022-07-28T11:27:58.923Z,36.97
2022-07-28T11:28:58.838Z,37.07
2022-07-28T11:29:58.833Z,36.63
2022-07-28T11:30:58.901Z,36.61
2022-07-28T11:31:58.884Z,36.43
2022-07-28T11:32:58.974Z,36.29
2022-07-28T11:33:58.867Z,36.13
2022-07-28T11:34:58.840Z,35.91
2022-07-28T11:35:58.808Z,35.76
2022-07-28T11:36:58.830Z,35.82
2022-07-28T11:37:58.892Z,35.70
2022-07-28T11:38:58.902Z,35.84
2022-07-28T11:39:58.900Z,35.89
2022-07-28T11:40:58.866Z,36.10
2022-07-28T11:41:58.890Z,36.13
2022-07-28T11:42:58.919Z,36.05
2022-07-28T11:43:58.870Z,35.95
2022-07-28T11:44:59.303Z,35.97
2022-07-28T11:45:58.950Z,35.91
2022-07-28T11:46:58.904Z,35.89
2022-07-28T11:47:59.052Z,35.74
2022-07-28T11:48:58.991Z,35.85
2022-07-28T11:49:59.453Z,36.01
2022-07-28T11:50:58.926Z,35.72
2022-07-28T11:51:58.877Z,35.52
2022-07-28T11:52:58.853Z,35.22
2022-07-28T11:53:58.953Z,35.02
2022-07-28T11:54:58.976Z,34.82
2022-07-28T11:56:02.925Z,34.73
2022-07-28T11:56:58.896Z,34.57
2022-07-28T11:57:58.904Z,34.38
2022-07-28T11:58:58.908Z,34.29
2022-07-28T11:59:59.034Z,34.09
2022-07-28T12:00:58.936Z,33.80
2022-07-28T12:01:58.935Z,33.72
2022-07-28T12:02:58.942Z,33.57
2022-07-28T12:03:59.412Z,33.45
2022-07-28T12:04:59.073Z,33.41
2022-07-28T12:05:59.010Z,33.32
2022-07-28T12:06:59.006Z,33.22
2022-07-28T12:07:58.972Z,33.10
2022-07-28T12:08:58.920Z,33.05
2022-07-28T12:09:58.996Z,32.96
2022-07-28T12:10:58.987Z,32.84
2022-07-28T12:11:58.905Z,32.74
2022-07-28T12:12:58.992Z,32.73
2022-07-28T12:13:59.013Z,32.70
2022-07-28T12:15:03.350Z,32.60
2022-07-28T12:15:59.003Z,32.43
2022-07-28T12:16:59.140Z,32.27
2022-07-28T12:17:59.017Z,32.20
2022-07-28T12:18:59.000Z,32.01
2022-07-28T12:19:59.288Z,31.85
2022-07-28T12:21:04.657Z,31.86
2022-07-28T12:21:58.992Z,31.89
2022-07-28T12:22:59.022Z,31.84
2022-07-28T12:23:59.132Z,31.49
2022-07-28T12:24:59.054Z,31.48
2022-07-28T12:25:59.018Z,31.60
2022-07-28T12:26:59.048Z,31.68
2022-07-28T12:27:59.042Z,31.79
2022-07-28T12:28:59.146Z,31.89
2022-07-28T12:29:59.052Z,32.01
2022-07-28T12:30:59.054Z,32.27
2022-07-28T12:31:59.339Z,32.42
2022-07-28T12:32:59.002Z,32.48
2022-07-28T12:33:59.302Z,32.50
2022-07-28T12:34:59.083Z,32.55
2022-07-28T12:35:59.048Z,32.50
2022-07-28T12:36:59.057Z,32.48
2022-07-28T12:37:59.055Z,32.40
2022-07-28T12:38:59.087Z,32.31
2022-07-28T12:39:59.731Z,32.14
2022-07-28T12:40:59.085Z,32.21
2022-07-28T12:41:59.030Z,32.09
2022-07-28T12:42:59.151Z,31.93
2022-07-28T12:43:59.038Z,31.74
2022-07-28T12:44:59.104Z,31.60
2022-07-28T12:45:59.165Z,31.30
2022-07-28T12:46:59.117Z,31.20
2022-07-28T12:47:59.089Z,31.12
2022-07-28T12:48:59.131Z,30.88
2022-07-28T12:50:00.549Z,30.77
2022-07-28T12:50:59.088Z,30.65
2022-07-28T12:51:59.144Z,30.54
2022-07-28T12:52:59.112Z,30.44
2022-07-28T12:53:59.108Z,30.33
2022-07-28T12:54:59.488Z,30.25
2022-07-28T12:55:59.119Z,30.23
2022-07-28T12:56:59.067Z,30.26
2022-07-28T12:57:59.099Z,30.19
2022-07-28T12:58:59.077Z,30.16
2022-07-28T12:59:59.234Z,30.21
2022-07-28T13:00:59.209Z,30.29
2022-07-28T13:01:59.280Z,30.40
2022-07-28T13:02:59.197Z,30.53
2022-07-28T13:03:59.089Z,30.57
2022-07-28T13:04:59.212Z,30.62
2022-07-28T13:05:59.138Z,30.65
2022-07-28T13:06:59.113Z,30.69
2022-07-28T13:07:59.164Z,30.78
2022-07-28T13:08:59.153Z,30.83
2022-07-28T13:10:00.481Z,30.97
2022-07-28T13:10:59.450Z,31.00
2022-07-28T13:11:59.182Z,31.15
2022-07-28T13:12:59.216Z,31.23
2022-07-28T13:13:59.118Z,31.39
2022-07-28T13:14:59.124Z,31.45
2022-07-28T13:15:59.220Z,31.46
2022-07-28T13:16:59.277Z,31.58
2022-07-28T13:17:59.185Z,31.89
2022-07-28T13:18:59.189Z,31.78
2022-07-28T13:19:59.225Z,31.82
2022-07-28T13:20:59.120Z,31.83
2022-07-28T13:22:01.880Z,31.99
2022-07-28T13:22:59.195Z,32.01
2022-07-28T13:23:59.190Z,32.09
2022-07-28T13:24:59.599Z,32.44
2022-07-28T13:25:59.195Z,32.67
2022-07-28T13:26:59.152Z,33.09
2022-07-28T13:27:59.184Z,33.62
2022-07-28T13:28:59.098Z,34.19
2022-07-28T13:29:59.231Z,34.70
2022-07-28T13:30:59.214Z,34.98
2022-07-28T13:31:59.253Z,35.10
2022-07-28T13:32:59.298Z,35.07
2022-07-28T13:33:59.219Z,35.12
2022-07-28T13:34:59.518Z,34.85
2022-07-28T13:35:59.146Z,34.40
2022-07-28T13:36:59.240Z,34.03
2022-07-28T13:37:59.233Z,33.29
2022-07-28T13:38:59.172Z,33.04
2022-07-28T13:39:59.283Z,32.80
2022-07-28T13:40:59.238Z,32.70
2022-07-28T13:41:59.575Z,32.74
2022-07-28T13:42:59.177Z,32.90
2022-07-28T13:43:59.241Z,33.13
2022-07-28T13:44:59.558Z,33.49
2022-07-28T13:46:00.162Z,33.38
2022-07-28T13:46:59.675Z,33.43
2022-07-28T13:47:59.367Z,33.56
2022-07-28T13:49:00.237Z,33.53
2022-07-28T13:49:59.723Z,33.68
2022-07-28T13:50:59.456Z,33.80
2022-07-28T13:51:59.504Z,33.81
2022-07-28T13:52:59.517Z,33.68
2022-07-28T13:53:59.483Z,33.59
2022-07-28T13:54:59.883Z,33.44
2022-07-28T13:55:59.569Z,33.29
2022-07-28T13:56:59.615Z,33.20
2022-07-28T13:57:59.617Z,33.10
2022-07-28T13:58:59.626Z,33.26
2022-07-28T13:59:59.630Z,33.25
2022-07-28T14:00:59.699Z,33.21
2022-07-28T14:01:59.662Z,32.96
2022-07-28T14:02:59.780Z,32.55
2022-07-28T14:03:59.617Z,32.26
2022-07-28T14:04:59.663Z,32.10
2022-07-28T14:05:59.615Z,32.13
2022-07-28T14:06:59.640Z,32.16
2022-07-28T14:08:00.025Z,32.38
2022-07-28T14:08:59.641Z,32.29
2022-07-28T14:09:59.677Z,32.31
2022-07-28T14:10:59.678Z,32.15
2022-07-28T14:11:59.657Z,32.21
2022-07-28T14:12:59.725Z,32.33
2022-07-28T14:13:59.682Z,32.57
2022-07-28T14:14:59.685Z,32.64
2022-07-28T14:16:02.525Z,32.54
2022-07-28T14:17:00.251Z,32.33
2022-07-28T14:17:59.671Z,32.47
2022-07-28T14:18:59.824Z,32.42
2022-07-28T14:19:59.853Z,32.55
2022-07-28T14:20:59.744Z,32.62
2022-07-28T14:21:59.670Z,32.36
2022-07-28T14:22:59.730Z,32.27
2022-07-28T14:23:59.664Z,32.15
2022-07-28T14:24:59.654Z,32.14
2022-07-28T14:26:25.234Z,32.23
2022-07-28T14:26:59.684Z,32.18
2022-07-28T14:27:59.724Z,31.98
2022-07-28T14:28:59.690Z,31.96
2022-07-28T14:29:59.984Z,32.00
2022-07-28T14:30:59.734Z,32.02
2022-07-28T14:31:59.813Z,31.94
2022-07-28T14:32:59.723Z,31.97
2022-07-28T14:33:59.723Z,31.91
2022-07-28T14:34:59.728Z,31.91
2022-07-28T14:35:59.721Z,31.76
2022-07-28T14:36:59.732Z,31.69
2022-07-28T14:38:59.772Z,31.47
2022-07-28T14:39:59.805Z,31.37
2022-07-28T14:40:59.774Z,31.37
2022-07-28T14:41:59.804Z,31.24
2022-07-28T14:42:59.830Z,30.92
2022-07-28T14:43:59.794Z,30.91
2022-07-28T14:45:00.319Z,30.69
2022-07-28T14:46:13.563Z,30.41
2022-07-28T14:46:59.846Z,30.46
2022-07-28T14:47:59.826Z,30.23
2022-07-28T14:48:59.828Z,30.13
2022-07-28T14:50:00.263Z,30.12
2022-07-28T14:50:59.780Z,30.02
2022-07-28T14:51:59.851Z,29.89
2022-07-28T14:52:59.849Z,29.98
2022-07-28T14:53:59.831Z,29.83
2022-07-28T14:55:00.099Z,29.75
2022-07-28T14:55:59.852Z,29.62
2022-07-28T14:56:59.851Z,29.61
2022-07-28T14:57:59.862Z,29.52
2022-07-28T14:58:59.862Z,29.78
2022-07-28T15:00:00.135Z,30.00
2022-07-28T15:00:59.863Z,30.00
2022-07-28T15:01:59.949Z,30.05
2022-07-28T15:02:59.979Z,29.67
2022-07-28T15:04:00.010Z,29.53
2022-07-28T15:05:00.063Z,29.49
2022-07-28T15:06:00.037Z,29.43
2022-07-28T15:07:00.088Z,29.48
2022-07-28T15:08:00.006Z,29.48
2022-07-28T15:09:00.107Z,29.67
2022-07-28T15:10:00.155Z,29.74
2022-07-28T15:11:00.168Z,29.49
2022-07-28T15:12:00.179Z,29.40
2022-07-28T15:13:00.224Z,29.65
2022-07-28T15:14:00.238Z,29.82
2022-07-28T15:15:00.415Z,29.92
2022-07-28T15:16:00.477Z,30.06
2022-07-28T15:17:00.295Z,30.10
2022-07-28T15:18:00.331Z,30.14
2022-07-28T15:19:00.361Z,30.14
2022-07-28T15:20:00.787Z,30.14
2022-07-28T15:21:00.386Z,30.15
2022-07-28T15:22:00.459Z,30.16
2022-07-28T15:23:00.374Z,30.10
2022-07-28T15:24:00.561Z,30.04
2022-07-28T15:25:00.876Z,30.01
2022-07-28T15:26:00.541Z,29.98
2022-07-28T15:27:00.567Z,29.79
2022-07-28T15:28:00.577Z,29.77
2022-07-28T15:29:00.614Z,29.69
2022-07-28T15:30:02.679Z,29.30
2022-07-28T15:31:00.681Z,29.05
2022-07-28T15:32:00.693Z,28.93
2022-07-28T15:33:00.643Z,28.99
2022-07-28T15:34:00.815Z,28.84
2022-07-28T15:35:00.671Z,28.85
2022-07-28T15:36:00.603Z,28.88
2022-07-28T15:37:00.567Z,28.72
2022-07-28T15:38:00.633Z,28.68
2022-07-28T15:39:00.673Z,28.99
2022-07-28T15:40:00.946Z,29.05
2022-07-28T15:41:00.715Z,29.07
2022-07-28T15:42:00.677Z,28.81
2022-07-28T15:43:00.714Z,28.70
2022-07-28T15:44:00.648Z,29.15
2022-07-28T15:45:01.421Z,28.85
2022-07-28T15:46:00.690Z,28.75
2022-07-28T15:47:00.752Z,28.78
2022-07-28T15:48:00.673Z,28.81
2022-07-28T15:49:00.718Z,28.87
2022-07-28T15:50:00.982Z,28.88
2022-07-28T15:51:00.589Z,28.81
2022-07-28T15:52:01.094Z,28.78
2022-07-28T15:53:00.694Z,28.63
2022-07-28T15:54:00.723Z,28.57
2022-07-28T15:55:00.697Z,28.50
2022-07-28T15:56:00.707Z,28.54
2022-07-28T15:57:00.739Z,28.44
2022-07-28T15:58:00.743Z,28.38
2022-07-28T15:59:00.728Z,28.30
2022-07-28T16:00:00.662Z,28.31
2022-07-28T16:01:01.660Z,28.28
2022-07-28T16:02:00.791Z,28.24
2022-07-28T16:03:00.781Z,28.20
2022-07-28T16:04:00.739Z,28.15
2022-07-28T16:05:00.715Z,28.21
2022-07-28T16:06:00.741Z,28.12
2022-07-28T16:07:00.672Z,28.13
2022-07-28T16:08:00.757Z,28.38
2022-07-28T16:09:00.743Z,28.55
2022-07-28T16:10:00.735Z,28.62
2022-07-28T16:11:00.771Z,28.70
2022-07-28T16:12:00.771Z,28.70
2022-07-28T16:13:00.774Z,28.72
2022-07-28T16:14:00.761Z,28.73
2022-07-28T16:15:00.783Z,28.67
2022-07-28T16:16:00.827Z,28.74
2022-07-28T16:17:00.826Z,28.72
2022-07-28T16:18:00.761Z,28.78
2022-07-28T16:19:00.756Z,28.76
2022-07-28T16:20:02.340Z,28.71
2022-07-28T16:21:00.809Z,28.80
2022-07-28T16:22:00.786Z,28.83
2022-07-28T16:23:00.781Z,28.89
2022-07-28T16:24:00.809Z,28.91
2022-07-28T16:25:00.813Z,28.92
2022-07-28T16:26:00.725Z,28.88
2022-07-28T16:27:00.748Z,28.76
2022-07-28T16:28:00.785Z,28.70
2022-07-28T16:29:00.794Z,28.73
2022-07-28T16:30:01.745Z,28.69
2022-07-28T16:31:00.876Z,28.69
2022-07-28T16:32:00.830Z,28.56
2022-07-28T16:33:00.793Z,28.50
2022-07-28T16:34:00.810Z,28.46
2022-07-28T16:35:00.848Z,28.40
2022-07-28T16:36:00.828Z,28.13
2022-07-28T16:37:00.805Z,28.15
2022-07-28T16:38:00.827Z,28.00
2022-07-28T16:39:00.750Z,27.84
2022-07-28T16:40:00.818Z,27.74
2022-07-28T16:41:00.823Z,27.79
2022-07-28T16:42:01.476Z,27.77
2022-07-28T16:43:00.789Z,27.59
2022-07-28T16:44:00.807Z,27.64
2022-07-28T16:45:01.042Z,27.61
2022-07-28T16:46:00.864Z,27.58
2022-07-28T16:47:00.819Z,27.48
2022-07-28T16:48:00.815Z,27.46
2022-07-28T16:49:00.890Z,27.43
2022-07-28T16:50:00.891Z,27.46
2022-07-28T16:51:00.857Z,27.41
2022-07-28T16:52:00.840Z,27.38
2022-07-28T16:53:00.844Z,27.29
2022-07-28T16:54:00.781Z,27.37
2022-07-28T16:55:00.905Z,27.41
2022-07-28T16:56:00.876Z,27.39
2022-07-28T16:57:00.900Z,27.38
2022-07-28T16:58:00.805Z,27.30
2022-07-28T16:59:00.925Z,27.47
2022-07-28T17:00:00.951Z,27.52
2022-07-28T17:01:00.816Z,27.53
2022-07-28T17:02:00.927Z,27.52
2022-07-28T17:03:00.871Z,27.49
2022-07-28T17:04:00.894Z,27.46
2022-07-28T17:05:00.965Z,27.53
2022-07-28T17:06:00.888Z,27.48
2022-07-28T17:07:00.834Z,27.39
